Time;durP1;ratioP1;P1;durP2;ratioP2;P2;SDS_P1;SDS_P2;PMS_P1;PMS_P2;Temp;Humidity;BMP_temperature;BMP_pressure;BME280_temperature;BME280_humidity;BME280_pressure;Samples;Min_cycle;Max_cycle;Signal;HPM_P1;HPM_P2
2023/03/07 00:00:07;;;;;;;22.85;16.23;;;4.10;99.90;;;;;;4995222;28;20400;-59
2023/03/07 00:02:33;;;;;;;19.80;14.15;;;4.20;99.90;;;;;;4991393;28;20038;-59
2023/03/07 00:04:58;;;;;;;18.67;14.02;;;4.10;99.90;;;;;;4994850;28;20051;-59
2023/03/07 00:07:24;;;;;;;19.55;13.45;;;4.20;99.90;;;;;;4978704;28;20501;-60
2023/03/07 00:09:50;;;;;;;16.35;12.35;;;4.20;99.90;;;;;;4972842;28;20121;-60
2023/03/07 00:12:15;;;;;;;14.35;11.25;;;4.20;99.90;;;;;;4984721;28;20042;-59
2023/03/07 00:14:41;;;;;;;12.23;10.65;;;4.20;99.90;;;;;;4991565;28;20131;-60
2023/03/07 00:17:06;;;;;;;11.13;9.10;;;4.20;99.90;;;;;;4999583;28;20511;-62
2023/03/07 00:19:32;;;;;;;9.55;8.35;;;4.20;99.90;;;;;;4990525;28;20057;-61
2023/03/07 00:21:58;;;;;;;7.35;6.30;;;4.10;99.90;;;;;;4977282;28;20706;-61
2023/03/07 00:24:23;;;;;;;7.15;6.10;;;4.00;99.90;;;;;;4975217;28;20057;-61
2023/03/07 00:26:49;;;;;;;7.60;5.25;;;4.10;99.90;;;;;;4973076;28;20045;-61
2023/03/07 00:29:14;;;;;;;6.80;5.20;;;4.00;99.90;;;;;;4970836;28;20112;-61
2023/03/07 00:31:40;;;;;;;6.88;6.05;;;3.90;99.90;;;;;;4972448;28;20065;-61
2023/03/07 00:34:06;;;;;;;6.95;6.05;;;3.90;99.90;;;;;;4992910;28;20062;-61
2023/03/07 00:36:31;;;;;;;7.20;6.22;;;3.90;99.90;;;;;;4970144;28;20392;-61
2023/03/07 00:38:57;;;;;;;6.55;5.85;;;3.90;99.90;;;;;;4990032;28;20050;-60
2023/03/07 00:41:24;;;;;;;7.63;6.65;;;3.90;99.90;;;;;;4978711;28;20035;-61
2023/03/07 00:43:52;;;;;;;6.63;5.88;;;3.90;99.90;;;;;;4973164;28;20046;-61
2023/03/07 00:46:19;;;;;;;9.02;7.40;;;3.90;99.90;;;;;;4972086;28;20047;-60
2023/03/07 00:48:45;;;;;;;8.73;7.82;;;3.90;99.90;;;;;;4977934;28;20061;-61
2023/03/07 00:51:14;;;;;;;10.45;8.60;;;3.90;99.90;;;;;;4980131;28;20038;-61
2023/03/07 00:53:39;;;;;;;10.85;8.77;;;4.00;99.90;;;;;;4976367;28;20484;-60
2023/03/07 00:56:06;;;;;;;12.10;8.80;;;4.00;99.90;;;;;;4976247;28;20047;-59
2023/03/07 00:58:35;;;;;;;9.18;8.05;;;3.90;99.90;;;;;;4970668;28;20049;-61
2023/03/07 01:01:02;;;;;;;10.82;8.27;;;4.00;99.90;;;;;;4972424;28;20054;-61
2023/03/07 01:03:29;;;;;;;8.95;7.85;;;3.90;99.90;;;;;;4970400;28;20054;-60
2023/03/07 01:05:54;;;;;;;7.28;6.30;;;4.00;99.90;;;;;;4972421;28;20035;-61
2023/03/07 01:08:21;;;;;;;7.50;5.50;;;4.00;99.90;;;;;;4973807;28;20038;-61
2023/03/07 01:10:47;;;;;;;4.68;3.60;;;3.90;99.90;;;;;;4968499;28;20049;-61
2023/03/07 01:13:14;;;;;;;5.45;3.20;;;4.00;99.90;;;;;;4987373;28;20042;-61
2023/03/07 01:15:40;;;;;;;3.08;2.30;;;4.00;99.90;;;;;;4991925;28;20045;-60
2023/03/07 01:18:07;;;;;;;2.55;1.90;;;3.90;99.90;;;;;;4990619;28;20035;-61
2023/03/07 01:20:35;;;;;;;2.90;1.90;;;3.80;99.90;;;;;;4973147;28;20487;-61
2023/03/07 01:23:01;;;;;;;1.80;1.58;;;3.80;99.90;;;;;;4983929;28;20046;-60
2023/03/07 01:25:27;;;;;;;3.60;1.40;;;3.80;99.90;;;;;;4976404;28;20133;-60
2023/03/07 01:27:57;;;;;;;3.83;1.50;;;3.70;99.90;;;;;;4973270;28;20034;-61
2023/03/07 01:30:24;;;;;;;4.50;1.50;;;3.70;99.90;;;;;;4970857;28;20538;-61
2023/03/07 01:32:55;;;;;;;2.30;1.15;;;3.60;99.90;;;;;;4971893;28;20042;-61
2023/03/07 01:35:20;;;;;;;3.58;0.90;;;3.60;99.90;;;;;;4974073;28;20054;-59
2023/03/07 01:37:48;;;;;;;3.40;1.33;;;3.70;99.90;;;;;;4973186;28;20053;-59
2023/03/07 01:40:14;;;;;;;1.45;1.02;;;3.60;99.90;;;;;;4975525;28;20072;-58
2023/03/07 01:42:40;;;;;;;2.03;1.02;;;3.60;99.90;;;;;;4972738;28;20034;-60
2023/03/07 01:45:27;;;;;;;3.58;1.15;;;3.60;99.90;;;;;;4970665;28;20582;-59
2023/03/07 01:47:52;;;;;;;2.63;1.13;;;3.50;99.90;;;;;;4979479;28;20038;-59
2023/03/07 01:50:18;;;;;;;1.40;0.90;;;3.60;99.90;;;;;;4978770;28;20469;-59
2023/03/07 01:52:52;;;;;;;2.92;1.05;;;3.50;99.90;;;;;;4975114;28;20112;-60
2023/03/07 01:55:26;;;;;;;1.23;0.90;;;3.50;99.90;;;;;;5064931;28;20379;-59
2023/03/07 01:57:54;;;;;;;2.38;1.20;;;3.50;99.90;;;;;;5052908;28;20125;-59
2023/03/07 02:00:28;;;;;;;2.53;1.33;;;3.50;99.90;;;;;;4990410;28;20034;-59
2023/03/07 02:03:10;;;;;;;4.47;1.40;;;3.50;99.90;;;;;;4990064;28;20038;-59
2023/03/07 02:05:40;;;;;;;3.63;1.38;;;3.50;99.90;;;;;;5033743;28;20049;-59
2023/03/07 02:08:10;;;;;;;3.38;1.50;;;3.40;99.90;;;;;;4988103;28;20162;-59
2023/03/07 02:10:36;;;;;;;1.98;1.50;;;3.40;99.90;;;;;;4977382;28;20071;-59
2023/03/07 02:13:02;;;;;;;3.05;1.95;;;3.40;99.90;;;;;;4989912;28;20046;-59
2023/03/07 02:15:28;;;;;;;4.35;2.20;;;3.40;99.90;;;;;;4993384;28;20038;-59
2023/03/07 02:17:57;;;;;;;2.70;1.75;;;3.40;99.90;;;;;;4985670;28;20458;-60
2023/03/07 02:20:40;;;;;;;2.60;1.90;;;3.40;99.90;;;;;;4976785;28;20629;-60
2023/03/07 02:23:12;;;;;;;3.65;1.90;;;3.40;99.90;;;;;;4978342;28;20053;-60
2023/03/07 02:25:57;;;;;;;4.03;1.65;;;3.30;99.90;;;;;;4983364;28;20046;-59
2023/03/07 02:28:23;;;;;;;4.60;1.98;;;3.30;99.90;;;;;;4991743;28;20084;-60
2023/03/07 02:31:03;;;;;;;2.58;1.48;;;3.20;99.90;;;;;;4996555;28;20446;-60
2023/03/07 02:33:29;;;;;;;3.55;1.52;;;3.20;99.90;;;;;;4997901;28;20053;-59
2023/03/07 02:36:06;;;;;;;4.15;1.60;;;3.20;99.90;;;;;;4989243;28;20480;-59
2023/03/07 02:38:36;;;;;;;5.28;1.50;;;3.10;99.90;;;;;;4989064;28;20558;-59
2023/03/07 02:41:03;;;;;;;6.70;1.50;;;3.10;99.90;;;;;;4975199;28;20511;-58
2023/03/07 02:43:29;;;;;;;7.03;1.60;;;3.10;99.90;;;;;;4974193;28;20450;-59
2023/03/07 02:45:55;;;;;;;3.03;1.15;;;3.00;99.90;;;;;;4979229;28;20043;-59
2023/03/07 02:48:20;;;;;;;5.93;1.08;;;3.00;99.90;;;;;;4976107;28;20415;-60
2023/03/07 02:50:49;;;;;;;7.00;1.33;;;3.00;99.90;;;;;;4970356;28;20065;-60
2023/03/07 02:53:15;;;;;;;7.93;1.77;;;3.00;99.90;;;;;;4979137;28;20039;-60
2023/03/07 02:55:41;;;;;;;7.00;1.35;;;3.00;99.90;;;;;;4984616;28;20045;-60
2023/03/07 02:58:06;;;;;;;7.38;1.27;;;2.90;99.90;;;;;;4973212;28;20073;-60
2023/03/07 03:00:32;;;;;;;7.72;1.23;;;3.00;99.90;;;;;;4976821;28;20047;-59
2023/03/07 03:02:58;;;;;;;5.20;1.35;;;2.90;99.90;;;;;;4974860;28;20126;-59
2023/03/07 03:05:24;;;;;;;4.82;1.70;;;3.00;99.90;;;;;;4978401;28;20058;-60
2023/03/07 03:07:49;;;;;;;5.43;1.33;;;3.00;99.90;;;;;;4974323;28;20042;-60
2023/03/07 03:10:16;;;;;;;5.75;1.48;;;3.00;99.90;;;;;;4977739;28;20479;-60
2023/03/07 03:12:41;;;;;;;4.35;1.33;;;3.00;99.90;;;;;;4981350;28;20503;-60
2023/03/07 03:15:08;;;;;;;4.78;1.38;;;3.10;99.90;;;;;;4977530;28;20057;-60
2023/03/07 03:17:33;;;;;;;7.30;1.50;;;3.00;99.90;;;;;;4982315;28;20034;-59
2023/03/07 03:19:59;;;;;;;5.82;1.65;;;3.00;99.90;;;;;;4973784;28;20445;-60
2023/03/07 03:22:25;;;;;;;7.90;1.58;;;3.00;99.90;;;;;;4977540;28;20066;-59
2023/03/07 03:24:50;;;;;;;6.35;1.35;;;3.00;99.90;;;;;;4978939;28;20153;-59
2023/03/07 03:27:16;;;;;;;8.25;2.10;;;3.00;99.90;;;;;;4976614;28;20087;-61
2023/03/07 03:29:41;;;;;;;7.22;1.60;;;3.00;99.90;;;;;;4982214;28;20046;-60
2023/03/07 03:32:07;;;;;;;5.45;1.20;;;3.00;99.90;;;;;;4974274;28;20046;-59
2023/03/07 03:34:33;;;;;;;5.30;1.55;;;3.00;99.90;;;;;;4976720;28;21353;-59
2023/03/07 03:36:58;;;;;;;8.30;1.50;;;3.00;99.90;;;;;;4990581;28;20057;-59
2023/03/07 03:39:24;;;;;;;8.40;1.67;;;2.90;99.90;;;;;;4981376;28;20079;-60
2023/03/07 03:41:50;;;;;;;8.50;1.45;;;2.90;99.90;;;;;;4989709;28;20088;-59
2023/03/07 03:44:15;;;;;;;6.60;1.70;;;2.90;99.90;;;;;;4990880;28;20045;-59
2023/03/07 03:46:41;;;;;;;7.95;1.75;;;2.80;99.90;;;;;;4995340;28;20053;-59
2023/03/07 03:49:07;;;;;;;8.30;1.50;;;2.80;99.90;;;;;;4973589;28;20435;-58
2023/03/07 03:51:32;;;;;;;10.60;2.22;;;2.80;99.90;;;;;;4993414;28;20038;-59
2023/03/07 03:53:58;;;;;;;9.00;1.80;;;2.80;99.90;;;;;;5007296;28;20078;-59
2023/03/07 03:56:25;;;;;;;7.72;1.42;;;2.80;99.90;;;;;;4986565;28;20042;-59
2023/03/07 03:58:54;;;;;;;10.05;2.08;;;2.80;99.90;;;;;;4979869;28;20413;-60
2023/03/07 04:01:22;;;;;;;10.43;1.70;;;2.80;99.90;;;;;;4981754;28;20038;-59
2023/03/07 04:03:49;;;;;;;8.93;1.83;;;2.80;99.90;;;;;;4984721;28;20042;-60
2023/03/07 04:06:22;;;;;;;11.82;2.00;;;2.80;99.90;;;;;;4991833;28;20043;-59
2023/03/07 04:08:47;;;;;;;10.18;1.75;;;2.80;99.90;;;;;;4990104;28;20515;-60
2023/03/07 04:11:13;;;;;;;7.53;1.50;;;2.90;99.90;;;;;;4990331;28;20042;-59
2023/03/07 04:13:39;;;;;;;16.90;2.08;;;2.90;99.90;;;;;;4993652;28;20047;-59
2023/03/07 04:16:05;;;;;;;8.95;1.75;;;2.90;99.90;;;;;;4991907;28;20135;-60
2023/03/07 04:18:31;;;;;;;7.90;1.40;;;2.90;99.90;;;;;;4978182;28;20043;-59
2023/03/07 04:20:57;;;;;;;12.57;1.73;;;3.00;99.90;;;;;;4977705;28;20054;-59
2023/03/07 04:23:24;;;;;;;9.00;1.95;;;3.00;99.90;;;;;;4975466;28;20125;-59
2023/03/07 04:25:56;;;;;;;9.45;1.65;;;3.00;99.90;;;;;;4973079;28;20278;-59
2023/03/07 04:28:27;;;;;;;9.63;1.77;;;3.00;99.90;;;;;;4970760;28;20047;-58
2023/03/07 04:30:53;;;;;;;10.15;1.73;;;3.10;99.90;;;;;;4977450;28;20077;-60
2023/03/07 04:33:19;;;;;;;10.00;1.80;;;3.10;99.90;;;;;;4973254;28;20090;-59
2023/03/07 04:35:45;;;;;;;8.68;1.95;;;3.10;99.90;;;;;;4974374;28;20492;-58
2023/03/07 04:38:12;;;;;;;8.57;1.77;;;3.20;99.90;;;;;;4976767;28;20141;-60
2023/03/07 04:40:38;;;;;;;10.23;2.00;;;3.20;99.90;;;;;;4973079;28;20392;-59
2023/03/07 04:43:04;;;;;;;10.45;2.03;;;3.20;99.90;;;;;;4971979;28;20038;-60
2023/03/07 04:45:35;;;;;;;7.28;1.60;;;3.20;99.90;;;;;;4985377;28;20036;-59
2023/03/07 04:48:02;;;;;;;11.18;1.75;;;3.20;99.90;;;;;;4989698;28;20179;-58
2023/03/07 04:50:28;;;;;;;6.03;1.67;;;3.20;99.90;;;;;;4985632;28;20171;-58
2023/03/07 04:52:54;;;;;;;9.45;2.45;;;3.20;99.90;;;;;;4986152;28;20587;-58
2023/03/07 04:55:19;;;;;;;10.07;1.95;;;3.20;99.90;;;;;;5079752;28;20714;-58
2023/03/07 04:57:46;;;;;;;11.30;1.80;;;3.30;99.90;;;;;;4992037;28;20142;-58
2023/03/07 05:00:13;;;;;;;10.68;2.10;;;3.20;99.90;;;;;;4989087;28;20054;-56
2023/03/07 05:02:39;;;;;;;13.52;2.15;;;3.30;99.90;;;;;;4989760;28;20034;-59
2023/03/07 05:05:05;;;;;;;6.75;1.65;;;3.20;99.90;;;;;;4992959;28;20046;-59
2023/03/07 05:07:31;;;;;;;7.35;2.03;;;3.20;99.90;;;;;;4997664;28;20138;-59
2023/03/07 05:09:57;;;;;;;5.40;1.30;;;3.20;99.90;;;;;;4996399;28;20053;-59
2023/03/07 05:12:23;;;;;;;6.85;1.60;;;3.10;99.90;;;;;;4999165;28;20548;-59
2023/03/07 05:14:49;;;;;;;10.65;1.98;;;3.10;99.90;;;;;;4996546;28;20061;-58
2023/03/07 05:17:15;;;;;;;9.90;2.53;;;3.10;99.90;;;;;;4994845;28;20081;-60
2023/03/07 05:19:41;;;;;;;8.80;1.75;;;3.10;99.90;;;;;;4991436;28;20463;-59
2023/03/07 05:22:08;;;;;;;8.05;1.75;;;3.10;99.90;;;;;;4997550;28;20030;-58
2023/03/07 05:24:34;;;;;;;8.68;1.45;;;3.00;99.90;;;;;;4994415;28;20034;-59
2023/03/07 05:27:00;;;;;;;6.63;1.60;;;3.10;99.90;;;;;;4987948;28;20181;-59
2023/03/07 05:29:26;;;;;;;9.63;1.20;;;3.00;99.90;;;;;;4991109;28;20050;-59
2023/03/07 05:31:52;;;;;;;8.00;1.38;;;3.10;99.90;;;;;;4988770;28;20045;-59
2023/03/07 05:34:17;;;;;;;6.32;1.40;;;3.00;99.90;;;;;;4983854;28;20133;-58
2023/03/07 05:36:43;;;;;;;4.75;1.23;;;3.10;99.90;;;;;;4999894;28;20042;-59
2023/03/07 05:39:09;;;;;;;11.50;1.60;;;3.00;99.90;;;;;;4989324;28;20123;-60
2023/03/07 05:41:34;;;;;;;8.48;1.67;;;3.00;99.90;;;;;;5001648;28;20400;-59
2023/03/07 05:44:00;;;;;;;8.35;1.52;;;3.00;99.90;;;;;;4991212;28;20363;-60
2023/03/07 05:46:26;;;;;;;7.68;1.35;;;3.00;99.90;;;;;;4994608;28;20041;-59
2023/03/07 05:48:52;;;;;;;9.43;1.42;;;3.10;99.90;;;;;;4988095;28;20470;-59
2023/03/07 05:51:17;;;;;;;7.40;1.33;;;3.10;99.90;;;;;;4999817;28;20054;-60
2023/03/07 05:53:45;;;;;;;7.40;1.20;;;3.00;99.90;;;;;;4995551;28;20499;-57
2023/03/07 05:56:11;;;;;;;6.13;1.23;;;3.10;99.90;;;;;;5001853;28;20558;-57
2023/03/07 05:58:36;;;;;;;10.60;1.67;;;3.10;99.90;;;;;;5003207;28;20125;-59
2023/03/07 06:01:02;;;;;;;7.10;1.15;;;3.10;99.90;;;;;;4999509;28;20034;-58
2023/03/07 06:03:28;;;;;;;8.30;1.65;;;3.10;99.90;;;;;;4995296;28;20043;-57
2023/03/07 06:05:54;;;;;;;7.80;1.55;;;3.10;99.90;;;;;;4998152;28;20053;-58
2023/03/07 06:08:20;;;;;;;10.13;1.45;;;3.10;99.90;;;;;;4992335;28;20034;-59
2023/03/07 06:10:53;;;;;;;8.73;1.30;;;3.10;99.90;;;;;;5004097;28;20037;-59
2023/03/07 06:13:21;;;;;;;10.63;1.63;;;3.10;99.90;;;;;;5008616;28;20134;-59
2023/03/07 06:15:48;;;;;;;;;;;3.10;99.90;;;;;;5006696;28;20095;-59
2023/03/07 06:18:14;;;;;;;9.33;1.33;;;3.10;99.90;;;;;;4989478;28;19921;-59
2023/03/07 06:20:39;;;;;;;11.20;1.30;;;3.10;99.90;;;;;;4996841;28;20414;-60
2023/03/07 06:23:05;;;;;;;9.90;1.63;;;3.10;99.90;;;;;;5001572;28;20041;-59
2023/03/07 06:25:30;;;;;;;7.05;1.15;;;3.10;99.90;;;;;;4993064;28;20313;-60
2023/03/07 06:27:59;;;;;;;8.38;1.25;;;3.20;99.90;;;;;;5004259;28;20367;-58
2023/03/07 06:30:26;;;;;;;7.47;1.50;;;3.20;99.90;;;;;;5007557;28;20116;-60
2023/03/07 06:32:51;;;;;;;6.90;1.85;;;3.20;99.90;;;;;;4997281;28;20488;-58
2023/03/07 06:35:17;;;;;;;11.20;1.40;;;3.20;99.90;;;;;;4992283;28;20134;-59
2023/03/07 06:37:42;;;;;;;6.63;1.25;;;3.20;99.90;;;;;;4997989;28;20046;-58
2023/03/07 06:40:09;;;;;;;10.35;1.25;;;3.20;99.90;;;;;;4994071;28;20056;-58
2023/03/07 06:42:35;;;;;;;12.10;2.10;;;3.30;99.90;;;;;;5002953;28;20088;-59
2023/03/07 06:45:01;;;;;;;13.38;1.50;;;3.30;99.90;;;;;;4994479;28;20444;-59
2023/03/07 06:47:26;;;;;;;7.22;1.40;;;3.30;99.90;;;;;;4997575;28;20137;-58
2023/03/07 06:49:52;;;;;;;10.23;1.67;;;3.40;99.90;;;;;;4998315;28;20536;-58
2023/03/07 06:52:18;;;;;;;8.68;1.50;;;3.40;99.90;;;;;;4998227;28;20052;-59
2023/03/07 06:54:43;;;;;;;6.90;1.20;;;3.40;99.90;;;;;;4996720;28;20070;-59
2023/03/07 06:57:09;;;;;;;8.52;1.40;;;3.40;99.90;;;;;;5008219;28;20038;-59
2023/03/07 06:59:35;;;;;;;12.40;1.65;;;3.40;99.90;;;;;;5004098;28;20046;-59
2023/03/07 07:02:04;;;;;;;5.95;1.48;;;3.40;99.90;;;;;;5001912;28;20061;-59
2023/03/07 07:04:29;;;;;;;7.07;1.75;;;3.40;99.90;;;;;;4989624;28;20125;-58
2023/03/07 07:06:55;;;;;;;5.38;1.40;;;3.40;99.90;;;;;;4992654;28;20142;-59
2023/03/07 07:09:21;;;;;;;10.77;1.38;;;3.40;99.90;;;;;;5072066;28;20040;-58
2023/03/07 07:11:46;;;;;;;9.20;1.45;;;3.40;99.90;;;;;;4992434;28;20050;-58
2023/03/07 07:14:12;;;;;;;11.60;1.80;;;3.40;99.90;;;;;;4981281;28;20081;-60
2023/03/07 07:16:37;;;;;;;7.80;1.50;;;3.30;99.90;;;;;;4978691;28;20047;-59
2023/03/07 07:19:03;;;;;;;8.32;1.63;;;3.30;99.90;;;;;;4973169;28;20479;-59
2023/03/07 07:21:29;;;;;;;8.20;1.10;;;3.20;99.90;;;;;;4979555;28;20054;-59
2023/03/07 07:23:57;;;;;;;4.55;0.90;;;3.00;99.90;;;;;;4977915;28;20431;-59
2023/03/07 07:26:23;;;;;;;4.53;1.00;;;2.90;99.90;;;;;;4973909;28;20077;-59
2023/03/07 07:28:50;;;;;;;2.67;0.65;;;2.70;99.90;;;;;;4994837;28;20066;-59
2023/03/07 07:31:15;;;;;;;6.55;1.42;;;2.70;99.90;;;;;;4976045;28;20112;-60
2023/03/07 07:33:41;;;;;;;5.57;1.00;;;2.60;99.90;;;;;;4976074;28;20469;-59
2023/03/07 07:36:07;;;;;;;2.97;0.60;;;2.60;99.90;;;;;;4975134;28;20042;-60
2023/03/07 07:38:33;;;;;;;7.85;0.80;;;2.60;99.90;;;;;;4977625;28;20038;-60
2023/03/07 07:41:01;;;;;;;4.65;0.75;;;2.60;99.90;;;;;;4973178;28;20101;-60
2023/03/07 07:43:27;;;;;;;3.60;1.02;;;2.60;99.90;;;;;;4974179;28;20419;-59
2023/03/07 07:45:52;;;;;;;4.38;0.80;;;2.60;99.90;;;;;;4980541;28;20507;-60
2023/03/07 07:48:18;;;;;;;6.70;1.02;;;2.60;99.90;;;;;;4974147;28;20041;-60
2023/03/07 07:50:44;;;;;;;6.25;0.90;;;2.60;99.90;;;;;;4986072;28;20035;-58
2023/03/07 07:53:10;;;;;;;4.13;1.20;;;2.60;99.90;;;;;;4973962;28;20049;-59
2023/03/07 07:55:36;;;;;;;6.13;1.45;;;2.70;99.90;;;;;;4988519;28;20400;-59
2023/03/07 07:58:01;;;;;;;3.75;1.08;;;2.70;99.90;;;;;;4990304;28;20035;-58
2023/03/07 08:00:27;;;;;;;7.65;1.25;;;2.70;99.90;;;;;;5003973;28;20143;-59
2023/03/07 08:02:53;;;;;;;8.65;1.30;;;2.70;99.90;;;;;;5000714;28;20401;-59
2023/03/07 08:05:20;;;;;;;5.50;1.27;;;2.70;99.90;;;;;;4995622;28;20042;-59
2023/03/07 08:07:46;;;;;;;6.83;1.40;;;2.70;99.90;;;;;;4986625;28;20050;-60
2023/03/07 08:10:14;;;;;;;4.35;1.00;;;2.70;99.90;;;;;;5001333;28;20087;-61
2023/03/07 08:12:44;;;;;;;;;;;2.60;99.90;;;;;;5004451;28;20037;-60
2023/03/07 08:15:10;;;;;;;6.68;0.90;;;2.60;99.90;;;;;;4989723;28;19947;-61
2023/03/07 08:17:36;;;;;;;6.38;1.10;;;2.60;99.90;;;;;;4981596;28;20072;-61
2023/03/07 08:20:07;;;;;;;4.85;1.30;;;2.60;99.90;;;;;;4973048;28;20438;-60
2023/03/07 08:22:33;;;;;;;9.50;1.35;;;2.70;99.90;;;;;;4975497;28;20046;-60
2023/03/07 08:24:59;;;;;;;5.65;1.10;;;2.70;99.90;;;;;;4974287;28;20121;-60
2023/03/07 08:27:26;;;;;;;5.18;1.00;;;2.80;99.90;;;;;;4975383;28;20117;-61
2023/03/07 08:29:52;;;;;;;5.33;1.47;;;2.90;99.90;;;;;;4977073;28;20054;-60
2023/03/07 08:32:17;;;;;;;4.75;1.17;;;3.00;99.90;;;;;;4975886;28;20046;-60
2023/03/07 08:34:43;;;;;;;6.80;1.75;;;3.00;99.90;;;;;;4974356;28;20157;-61
2023/03/07 08:37:09;;;;;;;7.68;1.23;;;3.00;99.90;;;;;;4971604;28;20125;-60
2023/03/07 08:39:35;;;;;;;7.28;1.13;;;3.00;99.90;;;;;;4975776;28;20484;-59
2023/03/07 08:42:01;;;;;;;8.65;1.38;;;3.10;99.90;;;;;;4982661;28;20046;-58
2023/03/07 08:44:26;;;;;;;7.75;1.40;;;3.10;99.90;;;;;;4970640;28;20448;-59
2023/03/07 08:46:52;;;;;;;4.72;1.10;;;3.20;99.90;;;;;;4982734;28;20558;-60
2023/03/07 08:49:17;;;;;;;6.25;1.75;;;3.20;99.90;;;;;;4975319;28;20041;-60
2023/03/07 08:51:46;;;;;;;5.95;1.10;;;3.20;99.90;;;;;;4979701;28;20046;-59
2023/03/07 08:54:11;;;;;;;6.55;1.45;;;3.30;99.90;;;;;;4980322;28;20165;-60
2023/03/07 08:56:37;;;;;;;7.20;1.50;;;3.30;99.90;;;;;;4975965;28;20576;-60
2023/03/07 08:59:03;;;;;;;7.35;1.45;;;3.40;99.90;;;;;;4973952;28;20057;-60
2023/03/07 09:01:28;;;;;;;4.03;1.17;;;3.40;99.90;;;;;;4975450;28;20040;-60
2023/03/07 09:03:54;;;;;;;4.70;1.40;;;3.50;99.90;;;;;;4981627;28;20039;-59
2023/03/07 09:06:20;;;;;;;6.72;1.17;;;3.50;99.90;;;;;;4986987;28;20050;-58
2023/03/07 09:08:47;;;;;;;4.82;1.20;;;3.60;99.90;;;;;;4992939;28;20125;-60
2023/03/07 09:11:13;;;;;;;6.78;1.38;;;3.70;99.90;;;;;;4994581;28;20095;-58
2023/03/07 09:13:38;;;;;;;5.57;1.40;;;3.70;99.90;;;;;;4982815;28;20042;-59
2023/03/07 09:16:05;;;;;;;6.18;1.60;;;3.80;99.90;;;;;;4992647;28;20366;-58
2023/03/07 09:18:32;;;;;;;6.13;1.20;;;3.80;99.90;;;;;;4986377;28;20075;-59
2023/03/07 09:21:03;;;;;;;5.15;1.52;;;3.90;99.90;;;;;;5063461;28;20114;-59
2023/03/07 09:23:29;;;;;;;11.32;1.90;;;3.90;99.90;;;;;;4980056;28;20118;-59
2023/03/07 09:25:58;;;;;;;5.88;1.55;;;3.90;99.90;;;;;;4986929;28;20194;-59
2023/03/07 09:28:24;;;;;;;6.05;1.60;;;4.00;99.90;;;;;;4988145;28;20056;-59
2023/03/07 09:30:49;;;;;;;6.07;1.73;;;4.00;99.90;;;;;;4988554;28;20043;-57
2023/03/07 09:33:15;;;;;;;5.25;1.10;;;4.10;99.90;;;;;;4990581;28;20124;-59
2023/03/07 09:35:42;;;;;;;4.13;1.30;;;4.30;99.90;;;;;;4988746;28;20134;-59
2023/03/07 09:38:09;;;;;;;5.47;1.58;;;4.30;99.90;;;;;;4996074;28;20121;-58
2023/03/07 09:40:36;;;;;;;9.82;1.55;;;4.40;99.90;;;;;;5003214;28;20429;-58
2023/03/07 09:43:19;;;;;;;7.65;1.52;;;4.40;99.90;;;;;;4999313;28;20092;-60
2023/03/07 09:45:51;;;;;;;3.53;1.40;;;4.50;99.90;;;;;;4991424;28;20046;-59
2023/03/07 09:48:25;;;;;;;6.00;1.35;;;4.60;99.90;;;;;;4996815;28;20594;-59
2023/03/07 09:50:59;;;;;;;5.82;1.15;;;4.50;99.90;;;;;;4986107;28;20046;-59
2023/03/07 09:53:38;;;;;;;5.95;1.45;;;4.60;99.90;;;;;;4990130;28;20058;-59
2023/03/07 09:56:20;;;;;;;7.40;1.35;;;4.70;99.90;;;;;;4988346;28;20086;-58
2023/03/07 09:58:52;;;;;;;3.35;1.17;;;4.70;99.90;;;;;;4991711;28;20562;-58
2023/03/07 10:01:21;;;;;;;8.02;1.48;;;4.70;99.90;;;;;;4989610;28;20051;-59
2023/03/07 10:04:00;;;;;;;5.70;1.67;;;4.70;99.90;;;;;;4997504;28;20039;-58
2023/03/07 10:06:41;;;;;;;5.65;1.67;;;4.80;99.90;;;;;;4984423;28;20500;-59
2023/03/07 10:09:13;;;;;;;7.13;1.85;;;4.80;99.90;;;;;;4989667;28;20432;-58
2023/03/07 10:12:03;;;;;;;7.25;1.88;;;4.90;99.90;;;;;;4996117;28;20481;-58
2023/03/07 10:14:37;;;;;;;6.65;1.92;;;4.90;99.90;;;;;;4997632;28;20038;-58
2023/03/07 10:17:34;;;;;;;5.93;1.70;;;4.90;99.90;;;;;;4987990;28;20525;-58
2023/03/07 10:20:18;;;;;;;4.90;2.00;;;4.80;99.90;;;;;;4988232;28;20089;-58
2023/03/07 10:22:50;;;;;;;5.60;2.10;;;4.80;99.90;;;;;;4986170;28;20046;-58
2023/03/07 10:25:47;;;;;;;5.97;1.50;;;4.80;99.90;;;;;;4993204;28;20050;-58
2023/03/07 10:28:28;;;;;;;11.70;1.50;;;4.80;99.90;;;;;;4985075;28;20503;-59
2023/03/07 10:30:59;;;;;;;6.50;1.80;;;4.90;99.90;;;;;;4988703;28;20121;-57
2023/03/07 10:33:28;;;;;;;6.85;1.45;;;4.90;99.90;;;;;;4983860;28;20377;-56
2023/03/07 10:36:01;;;;;;;8.30;2.05;;;5.00;99.90;;;;;;4990938;28;20180;-58
2023/03/07 10:38:41;;;;;;;4.57;1.35;;;5.10;99.90;;;;;;4987196;28;20047;-59
2023/03/07 10:41:25;;;;;;;6.13;1.30;;;5.10;99.90;;;;;;4987957;28;20187;-57
2023/03/07 10:43:53;;;;;;;5.43;1.52;;;5.10;99.90;;;;;;4992370;28;20073;-58
2023/03/07 10:46:19;;;;;;;7.28;2.17;;;5.10;99.90;;;;;;4990381;28;20072;-58
2023/03/07 10:48:49;;;;;;;3.42;1.20;;;5.00;99.90;;;;;;5009074;28;20073;-58
2023/03/07 10:51:34;;;;;;;3.67;1.10;;;4.90;99.90;;;;;;4987228;28;20761;-57
2023/03/07 10:54:01;;;;;;;6.30;1.20;;;4.90;99.90;;;;;;4995626;28;20371;-59
2023/03/07 10:56:26;;;;;;;4.65;1.52;;;4.80;99.90;;;;;;5002300;28;20078;-57
2023/03/07 10:59:09;;;;;;;6.68;1.50;;;4.80;99.90;;;;;;4999626;28;20079;-57
2023/03/07 11:01:36;;;;;;;6.63;1.30;;;4.90;99.90;;;;;;4987608;28;20092;-58
2023/03/07 11:04:04;;;;;;;7.53;1.60;;;4.90;99.90;;;;;;4984440;28;20129;-58
2023/03/07 11:06:51;;;;;;;5.22;1.38;;;5.10;99.90;;;;;;4998475;28;20046;-56
2023/03/07 11:09:28;;;;;;;4.27;1.20;;;5.20;99.90;;;;;;5012393;28;20050;-58
2023/03/07 11:12:03;;;;;;;4.77;1.83;;;5.40;99.90;;;;;;5006851;28;20292;-58
2023/03/07 11:14:30;;;;;;;5.38;1.38;;;5.50;99.90;;;;;;4986910;28;20034;-56
2023/03/07 11:17:01;;;;;;;5.68;1.65;;;5.60;99.90;;;;;;4992501;28;20060;-58
2023/03/07 11:19:30;;;;;;;4.95;1.45;;;5.70;99.90;;;;;;5004798;28;20077;-56
2023/03/07 11:21:58;;;;;;;5.88;1.55;;;5.80;99.90;;;;;;5012148;28;20049;-58
2023/03/07 11:24:35;;;;;;;4.78;1.90;;;5.90;99.90;;;;;;5012026;28;20050;-59
2023/03/07 11:27:01;;;;;;;5.57;1.70;;;5.90;99.90;;;;;;5012318;28;20050;-58
2023/03/07 11:29:27;;;;;;;7.57;2.08;;;6.00;99.90;;;;;;4995757;28;20051;-58
2023/03/07 11:32:10;;;;;;;5.85;1.65;;;5.90;99.90;;;;;;4976125;28;20043;-59
2023/03/07 11:34:46;;;;;;;7.07;1.80;;;6.00;99.90;;;;;;4976008;28;20435;-58
2023/03/07 11:37:35;;;;;;;5.60;1.50;;;6.00;99.90;;;;;;4987101;28;20125;-58
2023/03/07 11:40:23;;;;;;;5.80;1.52;;;6.20;99.90;;;;;;4988259;28;20500;-58
2023/03/07 11:43:07;;;;;;;7.32;1.83;;;6.20;99.90;;;;;;5000874;28;20042;-58
2023/03/07 11:45:45;;;;;;;6.65;1.58;;;6.30;99.90;;;;;;4987949;28;20543;-59
2023/03/07 11:48:14;;;;;;;;;;;6.40;99.90;;;;;;4993422;28;20050;-57
2023/03/07 11:50:41;;;;;;;5.93;1.30;;;6.30;99.90;;;;;;4990888;28;20329;-58
2023/03/07 11:53:20;;;;;;;7.43;1.60;;;6.30;99.90;;;;;;5000457;28;20162;-58
2023/03/07 11:56:23;;;;;;;4.70;1.17;;;6.30;99.90;;;;;;5004498;28;20418;-58
2023/03/07 11:59:26;;;;;;;7.82;1.52;;;6.40;99.90;;;;;;4995635;28;20121;-57
2023/03/07 12:01:58;;;;;;;5.72;1.42;;;6.30;99.90;;;;;;5007369;28;20039;-58
2023/03/07 12:04:38;;;;;;;7.55;1.80;;;6.40;99.90;;;;;;4980619;28;20038;-57
2023/03/07 12:07:07;;;;;;;5.38;1.73;;;6.50;99.90;;;;;;5000718;28;20599;-57
2023/03/07 12:09:56;;;;;;;5.85;1.65;;;6.40;99.90;;;;;;4995828;28;20064;-57
2023/03/07 12:12:46;;;;;;;6.00;1.77;;;6.40;99.90;;;;;;4995789;28;20049;-58
2023/03/07 12:15:22;;;;;;;4.85;1.40;;;6.60;99.90;;;;;;4998821;28;20041;-57
2023/03/07 12:17:47;;;;;;;7.75;1.75;;;6.60;99.90;;;;;;4997512;28;20124;-56
2023/03/07 12:20:19;;;;;;;4.40;1.23;;;6.60;99.90;;;;;;4996110;28;20053;-58
2023/03/07 12:22:59;;;;;;;9.40;1.73;;;6.70;99.90;;;;;;4988691;28;20073;-59
2023/03/07 12:25:41;;;;;;;4.68;1.20;;;6.80;99.90;;;;;;4984107;28;20035;-57
2023/03/07 12:28:28;;;;;;;9.68;1.35;;;6.90;99.90;;;;;;4995239;28;20504;-58
2023/03/07 12:31:16;;;;;;;4.65;1.08;;;7.00;99.90;;;;;;4993303;28;20038;-56
2023/03/07 12:33:45;;;;;;;5.38;1.50;;;7.10;99.90;;;;;;5001094;28;20081;-58
2023/03/07 12:36:36;;;;;;;4.80;0.95;;;7.20;99.90;;;;;;4994263;28;20058;-56
2023/03/07 12:39:06;;;;;;;4.85;1.20;;;7.20;99.90;;;;;;4992941;28;20066;-55
2023/03/07 12:41:58;;;;;;;4.53;1.23;;;7.20;99.90;;;;;;5000680;28;20054;-57
2023/03/07 12:44:41;;;;;;;5.53;1.65;;;7.10;99.90;;;;;;4994471;28;20070;-57
2023/03/07 12:47:15;;;;;;;8.10;1.40;;;6.30;99.90;;;;;;4995795;28;20054;-54
2023/03/07 12:49:50;;;;;;;7.70;1.40;;;6.00;99.90;;;;;;4993926;28;20053;-54
2023/03/07 12:52:38;;;;;;;6.47;1.13;;;5.50;99.90;;;;;;4991801;28;20039;-58
2023/03/07 12:55:30;;;;;;;5.32;0.88;;;5.00;99.90;;;;;;5005763;28;20042;-57
2023/03/07 12:58:31;;;;;;;5.68;1.00;;;4.40;99.90;;;;;;4998033;28;20056;-57
2023/03/07 13:01:01;;;;;;;3.83;1.15;;;4.30;99.90;;;;;;5043244;28;20048;-56
2023/03/07 13:03:56;;;;;;;7.95;1.40;;;4.00;99.90;;;;;;5023051;28;20175;-56
2023/03/07 13:06:24;;;;;;;6.43;1.23;;;4.00;99.90;;;;;;5026535;28;20037;-57